WetterOnline ( https://www.wetteronline.de )

Wetter aktuell Slaný

Aktuelles Wetter: Prag - Ruzyne (365m)

6-stündlich | Neueste Meldungen
Ortszeit Temperatur Wetter
Fr, 21.01. 19:00 -1.7° C wolkig
Fr, 21.01. 13:00 -1.2° C leichter Schneefall
Fr, 21.01. 7:00 -5.5° C fast wolkenlos
Fr, 21.01. 1:00 -3.1° C leichte Schneeschauer
Do, 20.01. 19:00 -0.7° C wolkig
Do, 20.01. 13:00 0.6° C fast wolkenlos
Do, 20.01. 7:00 0.9° C fast wolkenlos
Do, 20.01. 1:00 1.9° C bewölkt
Ortszeit Temperatur Wetter
Fr, 21.01. 19:00 -1.7° C wolkig
Fr, 21.01. 18:00 -2.2° C leicht bewölkt
Fr, 21.01. 17:00 -1.9° C fast wolkenlos
Fr, 21.01. 16:00 -1.3° C fast wolkenlos
Fr, 21.01. 15:00 -1.4° C leichte Schneeschauer
Fr, 21.01. 14:00 -0.7° C bewölkt
Fr, 21.01. 13:00 -1.2° C leichter Schneefall
Ortszeit Relative Feuchte Sichtweite
Fr, 21.01. 19:00 66% 50 km
Fr, 21.01. 13:00 75% 8 km
Fr, 21.01. 7:00 75% 40 km
Fr, 21.01. 1:00 89% 10 km
Do, 20.01. 19:00 77% 40 km
Do, 20.01. 13:00 61% 50 km
Do, 20.01. 7:00 83% 30 km
Do, 20.01. 1:00 80% 40 km
Ortszeit Relative Feuchte Sichtweite
Fr, 21.01. 19:00 66% 50 km
Fr, 21.01. 18:00 68% 50 km
Fr, 21.01. 17:00 68% 50 km
Fr, 21.01. 16:00 73% 50 km
Fr, 21.01. 15:00 89% 8 km
Fr, 21.01. 14:00 76% 20 km
Fr, 21.01. 13:00 75% 8 km
Ortszeit Niederschlagsmenge Niederschlagsart
Fr, 21.01. 19:00 0.1 l/m2 in 12 Std. Schneeschauer
Fr, 21.01. 13:00 0.1 l/m2 in 6 Std. Schnee
Fr, 21.01. 7:00 0.7 l/m2 in 12 Std. Schauer
Fr, 21.01. 1:00 0.7 l/m2 in 6 Std. Schauer
Do, 20.01. 19:00 0.4 l/m2 in 12 Std. Schauer
Do, 20.01. 13:00 0.4 l/m2 in 6 Std. Schauer
Do, 20.01. 7:00 0.3 l/m2 in 12 Std. Regenschauer
Do, 20.01. 1:00 0.0 l/m2 in 6 Std. -
Ortszeit Niederschlagsmenge Niederschlagsart
Fr, 21.01. 19:00 0.0 l/m2 in 1 Std. Schneeschauer
Fr, 21.01. 18:00 0.0 l/m2 in 1 Std. -
Fr, 21.01. 17:00 0.0 l/m2 in 1 Std. -
Fr, 21.01. 16:00 0.0 l/m2 in 1 Std. Schneeschauer
Fr, 21.01. 15:00 0.1 l/m2 in 1 Std. Schauer
Fr, 21.01. 14:00 0.1 l/m2 in 1 Std. Schnee
Fr, 21.01. 13:00 0.0 l/m2 in 1 Std. Schnee
Ortszeit Stärke Spitze Richtung
km/h Bft. km/h Grad Sektor
Fr, 21.01. 19:00 25 4 40 270° W
Fr, 21.01. 13:00 25 4 40 260° W
Fr, 21.01. 7:00 22 4 43 250° W
Fr, 21.01. 1:00 22 4 50 290° W
Do, 20.01. 19:00 25 4 54 260° W
Do, 20.01. 13:00 29 5 79 300° NW
Do, 20.01. 7:00 18 3 58 250° W
Do, 20.01. 1:00 36 5 50 250° W
Ortszeit Stärke Spitze Richtung
km/h Bft. km/h Grad Sektor
Fr, 21.01. 19:00 25 4 40 270° W
Fr, 21.01. 18:00 25 4 - 270° W
Fr, 21.01. 17:00 14 3 - 290° W
Fr, 21.01. 16:00 18 3 40 300° NW
Fr, 21.01. 15:00 22 4 - 290° W
Fr, 21.01. 14:00 25 4 40 280° W
Fr, 21.01. 13:00 25 4 40 260° W
Ortszeit Untergrenze Bedeckung Gattung
total tief tief mittel hoch
Fr, 21.01. 19:00 2700 m 7/8 7/8 - As -
Fr, 21.01. 13:00 360 m 7/8 7/8 Sc - -
Fr, 21.01. 7:00 1500 m 1/8 1/8 Sc - -
Fr, 21.01. 1:00 90 m 7/8 7/8 Sc - -
Do, 20.01. 19:00 900 m 7/8 1/8 Sc Ac -
Do, 20.01. 13:00 990 m 1/8 1/8 Cu Ac -
Do, 20.01. 7:00 750 m 1/8 1/8 Sc - -
Do, 20.01. 1:00 750 m 7/8 7/8 Sc - -
Ortszeit Bedeckungsgrad in Achtel und Wolkenuntergrenze
Fr, 21.01. 19:00 7(2700m)
Fr, 21.01. 18:00 2(2700m)
Fr, 21.01. 17:00 1(780m)
Fr, 21.01. 16:00 1(300m)
Fr, 21.01. 15:00 1(180m) 3(510m)
Fr, 21.01. 14:00 2(300m) 5(840m) 7(1800m)
Fr, 21.01. 13:00 1(360m) 3(600m) 7(900m)
Ortszeit Luftdruck NN (hPa) Tendenz (hPa in 3 Std.)
Fr, 21.01. 19:00 1027 + 0,5
Fr, 21.01. 13:00 1026 - 0,9
Fr, 21.01. 7:00 1028 + 1,1
Fr, 21.01. 1:00 1025 + 2,7
Do, 20.01. 19:00 1020 + 0,8
Do, 20.01. 13:00 1018 + 1,6
Do, 20.01. 7:00 1018 + 0,1
Do, 20.01. 1:00 1018 - 0,9
Ortszeit Luftdruck NN (hPa) Tendenz (hPa in 3 Std.)
Fr, 21.01. 19:00 1027 + 0,5
Fr, 21.01. 18:00 1027 + 0,4
Fr, 21.01. 17:00 1027 + 1,0
Fr, 21.01. 16:00 1027 + 0,4
Fr, 21.01. 15:00 1026 - 0,1
Fr, 21.01. 14:00 1026 - 1,2
Fr, 21.01. 13:00 1026 - 0,9
Ortszeit Schneehöhe (cm)
Fr, 21.01. 19:00 4
Fr, 21.01. 13:00 -
Fr, 21.01. 7:00 5
Fr, 21.01. 1:00 -
Do, 20.01. 19:00 2
Do, 20.01. 13:00 -
Do, 20.01. 7:00 0
Do, 20.01. 1:00 -
Ortszeit Schneehöhe (cm)
Fr, 21.01. 19:00 4
Fr, 21.01. 18:00 -
Fr, 21.01. 17:00 -
Fr, 21.01. 16:00 -
Fr, 21.01. 15:00 -
Fr, 21.01. 14:00 -
Fr, 21.01. 13:00 -
Link zu dieser Seite / Seite empfehlen

Das Wetter in ...